sensor_id;sensor_type;location;lat;lon;timestamp;P1;durP1;ratioP1;P2;durP2;ratioP2
40322;SDS011;26030;51.164;17.100;2023-03-26T00:02:19;4.80;;;2.20;;
40322;SDS011;26030;51.164;17.100;2023-03-26T00:07:23;3.80;;;1.80;;
40322;SDS011;26030;51.164;17.100;2023-03-26T00:12:27;2.00;;;1.50;;
40322;SDS011;26030;51.164;17.100;2023-03-26T00:17:31;2.10;;;1.60;;
40322;SDS011;26030;51.164;17.100;2023-03-26T00:22:36;2.80;;;2.10;;
40322;SDS011;26030;51.164;17.100;2023-03-26T00:27:40;5.40;;;2.40;;
40322;SDS011;26030;51.164;17.100;2023-03-26T00:32:44;2.40;;;1.40;;
40322;SDS011;26030;51.164;17.100;2023-03-26T00:37:56;2.70;;;2.00;;
40322;SDS011;26030;51.164;17.100;2023-03-26T00:43:01;1.80;;;1.70;;
40322;SDS011;26030;51.164;17.100;2023-03-26T00:48:05;3.40;;;1.50;;
40322;SDS011;26030;51.164;17.100;2023-03-26T00:53:09;2.00;;;1.50;;
40322;SDS011;26030;51.164;17.100;2023-03-26T00:58:16;2.50;;;1.40;;
40322;SDS011;26030;51.164;17.100;2023-03-26T01:03:20;6.30;;;1.70;;
40322;SDS011;26030;51.164;17.100;2023-03-26T01:08:36;2.00;;;1.50;;
40322;SDS011;26030;51.164;17.100;2023-03-26T01:13:53;1.60;;;1.50;;
40322;SDS011;26030;51.164;17.100;2023-03-26T01:18:57;2.70;;;1.90;;
40322;SDS011;26030;51.164;17.100;2023-03-26T01:24:07;2.10;;;1.80;;
40322;SDS011;26030;51.164;17.100;2023-03-26T01:29:53;3.10;;;1.60;;
40322;SDS011;26030;51.164;17.100;2023-03-26T01:35:06;2.60;;;1.80;;
40322;SDS011;26030;51.164;17.100;2023-03-26T01:40:34;4.00;;;1.80;;
40322;SDS011;26030;51.164;17.100;2023-03-26T08:04:33;2.10;;;0.70;;
40322;SDS011;26030;51.164;17.100;2023-03-26T08:10:16;4.90;;;0.90;;
40322;SDS011;26030;51.164;17.100;2023-03-26T08:21:34;1.90;;;0.70;;
40322;SDS011;26030;51.164;17.100;2023-03-26T08:32:03;7.10;;;1.50;;
40322;SDS011;26030;51.164;17.100;2023-03-26T08:37:08;4.00;;;1.20;;
40322;SDS011;26030;51.164;17.100;2023-03-26T09:03:58;2.20;;;0.90;;
40322;SDS011;26030;51.164;17.100;2023-03-26T09:26:45;6.00;;;0.80;;
40322;SDS011;26030;51.164;17.100;2023-03-26T10:11:04;6.00;;;1.30;;
40322;SDS011;26030;51.164;17.100;2023-03-26T10:16:25;1.70;;;0.80;;
40322;SDS011;26030;51.164;17.100;2023-03-26T10:27:13;3.30;;;1.10;;
40322;SDS011;26030;51.164;17.100;2023-03-26T10:37:48;5.40;;;1.20;;
40322;SDS011;26030;51.164;17.100;2023-03-26T10:48:45;8.10;;;1.00;;
40322;SDS011;26030;51.164;17.100;2023-03-26T10:53:57;4.50;;;1.20;;
40322;SDS011;26030;51.164;17.100;2023-03-26T10:59:07;7.30;;;1.30;;
40322;SDS011;26030;51.164;17.100;2023-03-26T11:25:40;5.80;;;1.30;;
40322;SDS011;26030;51.164;17.100;2023-03-26T11:36:38;7.60;;;1.20;;
40322;SDS011;26030;51.164;17.100;2023-03-26T11:41:45;2.30;;;0.90;;
40322;SDS011;26030;51.164;17.100;2023-03-26T11:47:01;7.20;;;1.50;;
40322;SDS011;26030;51.164;17.100;2023-03-26T11:52:10;4.80;;;0.70;;
40322;SDS011;26030;51.164;17.100;2023-03-26T11:57:26;3.60;;;0.80;;
40322;SDS011;26030;51.164;17.100;2023-03-26T12:02:39;7.90;;;1.10;;
40322;SDS011;26030;51.164;17.100;2023-03-26T12:07:53;7.70;;;1.10;;
40322;SDS011;26030;51.164;17.100;2023-03-26T12:13:01;3.20;;;0.90;;
40322;SDS011;26030;51.164;17.100;2023-03-26T12:18:23;3.80;;;1.00;;
40322;SDS011;26030;51.164;17.100;2023-03-26T12:24:01;5.40;;;0.90;;
40322;SDS011;26030;51.164;17.100;2023-03-26T12:29:14;3.70;;;1.10;;
40322;SDS011;26030;51.164;17.100;2023-03-26T12:34:27;2.10;;;1.00;;
40322;SDS011;26030;51.164;17.100;2023-03-26T12:39:38;4.30;;;0.90;;
40322;SDS011;26030;51.164;17.100;2023-03-26T12:45:05;7.60;;;1.20;;
40322;SDS011;26030;51.164;17.100;2023-03-26T12:50:13;4.10;;;0.90;;
40322;SDS011;26030;51.164;17.100;2023-03-26T12:55:49;4.90;;;1.00;;
40322;SDS011;26030;51.164;17.100;2023-03-26T13:01:09;3.40;;;1.20;;
40322;SDS011;26030;51.164;17.100;2023-03-26T13:12:06;5.20;;;1.20;;
40322;SDS011;26030;51.164;17.100;2023-03-26T13:34:08;5.60;;;1.40;;
40322;SDS011;26030;51.164;17.100;2023-03-26T13:44:36;6.30;;;1.20;;
40322;SDS011;26030;51.164;17.100;2023-03-26T13:50:04;5.30;;;1.20;;
40322;SDS011;26030;51.164;17.100;2023-03-26T13:55:30;1.70;;;1.00;;
40322;SDS011;26030;51.164;17.100;2023-03-26T14:01:04;2.00;;;1.00;;
40322;SDS011;26030;51.164;17.100;2023-03-26T14:06:30;1.90;;;0.90;;
40322;SDS011;26030;51.164;17.100;2023-03-26T14:17:11;5.60;;;1.00;;
40322;SDS011;26030;51.164;17.100;2023-03-26T14:37:51;4.50;;;1.20;;
40322;SDS011;26030;51.164;17.100;2023-03-26T14:54:25;1.50;;;0.90;;
40322;SDS011;26030;51.164;17.100;2023-03-26T15:33:12;7.50;;;1.60;;
40322;SDS011;26030;51.164;17.100;2023-03-26T15:44:20;7.00;;;1.40;;
40322;SDS011;26030;51.164;17.100;2023-03-26T15:49:45;12.30;;;1.80;;
40322;SDS011;26030;51.164;17.100;2023-03-26T15:55:01;9.70;;;1.60;;
40322;SDS011;26030;51.164;17.100;2023-03-26T16:00:24;5.80;;;1.20;;
40322;SDS011;26030;51.164;17.100;2023-03-26T16:16:23;2.60;;;1.20;;
40322;SDS011;26030;51.164;17.100;2023-03-26T16:32:22;4.40;;;1.10;;
40322;SDS011;26030;51.164;17.100;2023-03-26T16:42:46;7.40;;;1.30;;
40322;SDS011;26030;51.164;17.100;2023-03-26T16:53:14;10.60;;;1.90;;
40322;SDS011;26030;51.164;17.100;2023-03-26T16:58:37;11.00;;;2.50;;
40322;SDS011;26030;51.164;17.100;2023-03-26T17:15:35;9.70;;;2.10;;
40322;SDS011;26030;51.164;17.100;2023-03-26T17:21:10;8.80;;;2.60;;
40322;SDS011;26030;51.164;17.100;2023-03-26T17:32:03;8.70;;;2.60;;
40322;SDS011;26030;51.164;17.100;2023-03-26T17:42:37;7.80;;;3.00;;
40322;SDS011;26030;51.164;17.100;2023-03-26T17:48:16;7.60;;;2.90;;
40322;SDS011;26030;51.164;17.100;2023-03-26T17:53:35;8.70;;;3.20;;
40322;SDS011;26030;51.164;17.100;2023-03-26T17:58:59;8.00;;;2.80;;
40322;SDS011;26030;51.164;17.100;2023-03-26T18:04:20;9.80;;;3.40;;
40322;SDS011;26030;51.164;17.100;2023-03-26T18:09:48;14.90;;;3.10;;
40322;SDS011;26030;51.164;17.100;2023-03-26T18:20:31;9.90;;;3.40;;
40322;SDS011;26030;51.164;17.100;2023-03-26T18:25:57;10.00;;;3.60;;
40322;SDS011;26030;51.164;17.100;2023-03-26T18:31:11;9.80;;;4.30;;
40322;SDS011;26030;51.164;17.100;2023-03-26T18:36:24;12.80;;;3.90;;
40322;SDS011;26030;51.164;17.100;2023-03-26T18:41:38;9.30;;;4.30;;
40322;SDS011;26030;51.164;17.100;2023-03-26T18:46:46;7.80;;;3.50;;
40322;SDS011;26030;51.164;17.100;2023-03-26T18:51:52;11.10;;;3.70;;
40322;SDS011;26030;51.164;17.100;2023-03-26T18:57:10;10.70;;;3.40;;
40322;SDS011;26030;51.164;17.100;2023-03-26T19:02:24;5.70;;;3.50;;
40322;SDS011;26030;51.164;17.100;2023-03-26T19:07:30;11.20;;;4.10;;
40322;SDS011;26030;51.164;17.100;2023-03-26T19:12:40;14.00;;;3.40;;
40322;SDS011;26030;51.164;17.100;2023-03-26T19:17:50;7.90;;;3.80;;
40322;SDS011;26030;51.164;17.100;2023-03-26T19:23:01;9.10;;;3.20;;
40322;SDS011;26030;51.164;17.100;2023-03-26T19:28:37;6.70;;;3.40;;
40322;SDS011;26030;51.164;17.100;2023-03-26T19:33:53;8.90;;;3.20;;
40322;SDS011;26030;51.164;17.100;2023-03-26T19:44:26;7.00;;;2.90;;
40322;SDS011;26030;51.164;17.100;2023-03-26T19:50:11;8.40;;;3.00;;
40322;SDS011;26030;51.164;17.100;2023-03-26T19:55:22;6.30;;;2.90;;
40322;SDS011;26030;51.164;17.100;2023-03-26T20:00:30;9.10;;;2.90;;
40322;SDS011;26030;51.164;17.100;2023-03-26T20:05:38;5.90;;;2.80;;
40322;SDS011;26030;51.164;17.100;2023-03-26T20:10:49;8.90;;;3.40;;
40322;SDS011;26030;51.164;17.100;2023-03-26T20:16:35;5.20;;;3.00;;
40322;SDS011;26030;51.164;17.100;2023-03-26T20:21:34;6.90;;;2.70;;
40322;SDS011;26030;51.164;17.100;2023-03-26T20:26:43;5.90;;;2.90;;
40322;SDS011;26030;51.164;17.100;2023-03-26T20:31:49;7.60;;;3.20;;
40322;SDS011;26030;51.164;17.100;2023-03-26T20:36:55;11.20;;;3.00;;
40322;SDS011;26030;51.164;17.100;2023-03-26T20:42:05;8.50;;;3.10;;
40322;SDS011;26030;51.164;17.100;2023-03-26T20:47:11;8.10;;;3.10;;
40322;SDS011;26030;51.164;17.100;2023-03-26T20:52:15;12.40;;;3.20;;
40322;SDS011;26030;51.164;17.100;2023-03-26T20:57:23;4.60;;;2.50;;
40322;SDS011;26030;51.164;17.100;2023-03-26T21:02:29;6.00;;;2.60;;
40322;SDS011;26030;51.164;17.100;2023-03-26T21:07:33;8.50;;;3.80;;
40322;SDS011;26030;51.164;17.100;2023-03-26T21:13:09;9.20;;;3.40;;
40322;SDS011;26030;51.164;17.100;2023-03-26T21:18:13;8.10;;;2.80;;
40322;SDS011;26030;51.164;17.100;2023-03-26T21:23:26;8.50;;;3.70;;
40322;SDS011;26030;51.164;17.100;2023-03-26T21:28:46;10.50;;;3.90;;
40322;SDS011;26030;51.164;17.100;2023-03-26T21:33:51;7.00;;;3.50;;
40322;SDS011;26030;51.164;17.100;2023-03-26T21:38:56;7.00;;;3.40;;
40322;SDS011;26030;51.164;17.100;2023-03-26T21:44:03;5.50;;;2.90;;
40322;SDS011;26030;51.164;17.100;2023-03-26T21:49:09;9.80;;;3.90;;
40322;SDS011;26030;51.164;17.100;2023-03-26T21:59:44;9.40;;;3.60;;
40322;SDS011;26030;51.164;17.100;2023-03-26T22:09:57;8.90;;;3.20;;
40322;SDS011;26030;51.164;17.100;2023-03-26T22:15:01;5.80;;;3.00;;
40322;SDS011;26030;51.164;17.100;2023-03-26T22:20:12;8.50;;;3.10;;
40322;SDS011;26030;51.164;17.100;2023-03-26T22:25:18;5.60;;;2.60;;
40322;SDS011;26030;51.164;17.100;2023-03-26T22:30:22;9.40;;;3.10;;
40322;SDS011;26030;51.164;17.100;2023-03-26T22:35:26;5.40;;;3.00;;
40322;SDS011;26030;51.164;17.100;2023-03-26T22:40:30;4.40;;;2.90;;
40322;SDS011;26030;51.164;17.100;2023-03-26T22:45:35;7.20;;;3.00;;
40322;SDS011;26030;51.164;17.100;2023-03-26T22:50:40;7.00;;;3.20;;
40322;SDS011;26030;51.164;17.100;2023-03-26T22:55:44;4.10;;;2.60;;
40322;SDS011;26030;51.164;17.100;2023-03-26T23:00:49;5.30;;;2.80;;
40322;SDS011;26030;51.164;17.100;2023-03-26T23:05:58;4.80;;;3.20;;
40322;SDS011;26030;51.164;17.100;2023-03-26T23:11:15;6.80;;;2.60;;
40322;SDS011;26030;51.164;17.100;2023-03-26T23:16:20;5.30;;;2.80;;
40322;SDS011;26030;51.164;17.100;2023-03-26T23:21:24;4.80;;;2.60;;
40322;SDS011;26030;51.164;17.100;2023-03-26T23:26:28;6.80;;;2.70;;
40322;SDS011;26030;51.164;17.100;2023-03-26T23:31:40;4.00;;;2.60;;
40322;SDS011;26030;51.164;17.100;2023-03-26T23:36:44;4.00;;;2.70;;
40322;SDS011;26030;51.164;17.100;2023-03-26T23:41:49;4.90;;;2.70;;
40322;SDS011;26030;51.164;17.100;2023-03-26T23:46:53;4.70;;;2.50;;
40322;SDS011;26030;51.164;17.100;2023-03-26T23:52:00;3.70;;;2.30;;
40322;SDS011;26030;51.164;17.100;2023-03-26T23:57:04;3.90;;;2.30;;
